sensor_id;sensor_type;location;lat;lon;timestamp;P1;durP1;ratioP1;P2;durP2;ratioP2
74342;SDS011;62767;50.300;8.070;2024-02-14T00:00:05;1.50;;;1.02;;
74342;SDS011;62767;50.300;8.070;2024-02-14T00:02:43;1.58;;;1.08;;
74342;SDS011;62767;50.300;8.070;2024-02-14T00:05:09;1.45;;;1.10;;
74342;SDS011;62767;50.300;8.070;2024-02-14T00:07:38;1.40;;;1.00;;
74342;SDS011;62767;50.300;8.070;2024-02-14T00:10:05;1.25;;;0.93;;
74342;SDS011;62767;50.300;8.070;2024-02-14T00:12:31;2.53;;;1.27;;
74342;SDS011;62767;50.300;8.070;2024-02-14T00:15:04;1.30;;;0.88;;
74342;SDS011;62767;50.300;8.070;2024-02-14T00:17:31;1.50;;;1.10;;
74342;SDS011;62767;50.300;8.070;2024-02-14T00:19:57;1.15;;;0.73;;
74342;SDS011;62767;50.300;8.070;2024-02-14T00:22:23;1.02;;;0.80;;
74342;SDS011;62767;50.300;8.070;2024-02-14T00:24:49;1.75;;;0.98;;
74342;SDS011;62767;50.300;8.070;2024-02-14T00:27:15;1.48;;;1.05;;
74342;SDS011;62767;50.300;8.070;2024-02-14T00:29:40;1.60;;;1.00;;
74342;SDS011;62767;50.300;8.070;2024-02-14T00:32:06;1.48;;;1.00;;
74342;SDS011;62767;50.300;8.070;2024-02-14T00:34:32;1.60;;;1.10;;
74342;SDS011;62767;50.300;8.070;2024-02-14T00:36:57;2.28;;;1.00;;
74342;SDS011;62767;50.300;8.070;2024-02-14T00:39:23;1.63;;;0.82;;
74342;SDS011;62767;50.300;8.070;2024-02-14T00:41:48;1.50;;;0.98;;
74342;SDS011;62767;50.300;8.070;2024-02-14T00:44:15;1.38;;;1.05;;
74342;SDS011;62767;50.300;8.070;2024-02-14T00:46:42;2.33;;;1.02;;
74342;SDS011;62767;50.300;8.070;2024-02-14T00:49:09;1.65;;;1.00;;
74342;SDS011;62767;50.300;8.070;2024-02-14T00:51:35;0.73;;;0.70;;
74342;SDS011;62767;50.300;8.070;2024-02-14T00:54:03;1.48;;;0.95;;
74342;SDS011;62767;50.300;8.070;2024-02-14T00:56:29;1.17;;;0.93;;
74342;SDS011;62767;50.300;8.070;2024-02-14T00:58:54;1.67;;;0.90;;
74342;SDS011;62767;50.300;8.070;2024-02-14T01:01:20;1.55;;;0.90;;
74342;SDS011;62767;50.300;8.070;2024-02-14T01:03:46;1.58;;;0.95;;
74342;SDS011;62767;50.300;8.070;2024-02-14T01:06:12;1.17;;;0.85;;
74342;SDS011;62767;50.300;8.070;2024-02-14T01:08:39;0.88;;;0.77;;
74342;SDS011;62767;50.300;8.070;2024-02-14T01:11:06;1.67;;;1.00;;
74342;SDS011;62767;50.300;8.070;2024-02-14T01:13:32;1.48;;;0.90;;
74342;SDS011;62767;50.300;8.070;2024-02-14T01:15:58;1.15;;;0.70;;
74342;SDS011;62767;50.300;8.070;2024-02-14T01:18:24;1.40;;;1.00;;
74342;SDS011;62767;50.300;8.070;2024-02-14T01:20:49;2.00;;;1.10;;
74342;SDS011;62767;50.300;8.070;2024-02-14T01:23:15;1.13;;;0.88;;
74342;SDS011;62767;50.300;8.070;2024-02-14T01:25:41;1.98;;;1.00;;
74342;SDS011;62767;50.300;8.070;2024-02-14T01:28:07;3.13;;;0.93;;
74342;SDS011;62767;50.300;8.070;2024-02-14T01:30:34;1.40;;;0.95;;
74342;SDS011;62767;50.300;8.070;2024-02-14T01:33:01;2.05;;;0.90;;
74342;SDS011;62767;50.300;8.070;2024-02-14T01:35:29;0.90;;;0.80;;
74342;SDS011;62767;50.300;8.070;2024-02-14T01:37:55;1.00;;;0.70;;
74342;SDS011;62767;50.300;8.070;2024-02-14T01:40:21;0.90;;;0.70;;
74342;SDS011;62767;50.300;8.070;2024-02-14T01:42:46;0.95;;;0.70;;
74342;SDS011;62767;50.300;8.070;2024-02-14T01:45:12;1.98;;;0.80;;
74342;SDS011;62767;50.300;8.070;2024-02-14T01:47:38;1.02;;;0.68;;
74342;SDS011;62767;50.300;8.070;2024-02-14T01:50:09;1.05;;;0.80;;
74342;SDS011;62767;50.300;8.070;2024-02-14T01:52:37;0.90;;;0.80;;
74342;SDS011;62767;50.300;8.070;2024-02-14T01:55:04;1.13;;;0.90;;
74342;SDS011;62767;50.300;8.070;2024-02-14T01:57:32;1.73;;;1.13;;
74342;SDS011;62767;50.300;8.070;2024-02-14T01:59:59;1.00;;;0.80;;
74342;SDS011;62767;50.300;8.070;2024-02-14T02:02:37;0.77;;;0.70;;
74342;SDS011;62767;50.300;8.070;2024-02-14T02:05:07;1.02;;;0.77;;
74342;SDS011;62767;50.300;8.070;2024-02-14T02:07:33;1.05;;;0.70;;
74342;SDS011;62767;50.300;8.070;2024-02-14T02:09:59;0.93;;;0.70;;
74342;SDS011;62767;50.300;8.070;2024-02-14T02:12:24;1.20;;;0.80;;
74342;SDS011;62767;50.300;8.070;2024-02-14T02:14:53;1.05;;;0.68;;
74342;SDS011;62767;50.300;8.070;2024-02-14T02:17:18;1.00;;;0.80;;
74342;SDS011;62767;50.300;8.070;2024-02-14T02:19:44;0.98;;;0.88;;
74342;SDS011;62767;50.300;8.070;2024-02-14T02:22:11;0.77;;;0.75;;
74342;SDS011;62767;50.300;8.070;2024-02-14T02:24:36;0.77;;;0.70;;
74342;SDS011;62767;50.300;8.070;2024-02-14T02:27:02;1.30;;;0.70;;
74342;SDS011;62767;50.300;8.070;2024-02-14T02:29:28;0.77;;;0.60;;
74342;SDS011;62767;50.300;8.070;2024-02-14T02:31:54;0.60;;;0.60;;
74342;SDS011;62767;50.300;8.070;2024-02-14T02:34:20;1.48;;;0.80;;
74342;SDS011;62767;50.300;8.070;2024-02-14T02:36:45;0.60;;;0.60;;
74342;SDS011;62767;50.300;8.070;2024-02-14T02:39:11;1.52;;;0.70;;
74342;SDS011;62767;50.300;8.070;2024-02-14T02:41:39;1.00;;;0.70;;
74342;SDS011;62767;50.300;8.070;2024-02-14T02:44:04;1.05;;;0.68;;
74342;SDS011;62767;50.300;8.070;2024-02-14T02:46:31;1.08;;;0.60;;
74342;SDS011;62767;50.300;8.070;2024-02-14T02:48:57;1.52;;;0.85;;
74342;SDS011;62767;50.300;8.070;2024-02-14T02:51:23;0.75;;;0.60;;
74342;SDS011;62767;50.300;8.070;2024-02-14T02:53:49;1.10;;;0.80;;
74342;SDS011;62767;50.300;8.070;2024-02-14T02:56:17;1.05;;;0.70;;
74342;SDS011;62767;50.300;8.070;2024-02-14T03:01:09;0.70;;;0.70;;
74342;SDS011;62767;50.300;8.070;2024-02-14T03:03:37;1.00;;;0.70;;
74342;SDS011;62767;50.300;8.070;2024-02-14T03:06:04;0.65;;;0.60;;
74342;SDS011;62767;50.300;8.070;2024-02-14T03:08:30;0.88;;;0.68;;
74342;SDS011;62767;50.300;8.070;2024-02-14T03:11:06;0.50;;;0.50;;
74342;SDS011;62767;50.300;8.070;2024-02-14T03:13:32;0.95;;;0.70;;
74342;SDS011;62767;50.300;8.070;2024-02-14T03:15:58;0.80;;;0.68;;
74342;SDS011;62767;50.300;8.070;2024-02-14T03:18:26;0.60;;;0.55;;
74342;SDS011;62767;50.300;8.070;2024-02-14T03:20:52;0.60;;;0.60;;
74342;SDS011;62767;50.300;8.070;2024-02-14T03:23:19;0.60;;;0.60;;
74342;SDS011;62767;50.300;8.070;2024-02-14T03:25:45;1.40;;;0.80;;
74342;SDS011;62767;50.300;8.070;2024-02-14T03:28:10;0.50;;;0.50;;
74342;SDS011;62767;50.300;8.070;2024-02-14T03:30:38;0.57;;;0.50;;
74342;SDS011;62767;50.300;8.070;2024-02-14T03:33:04;0.55;;;0.43;;
74342;SDS011;62767;50.300;8.070;2024-02-14T03:37:56;0.85;;;0.65;;
74342;SDS011;62767;50.300;8.070;2024-02-14T03:40:22;0.60;;;0.60;;
74342;SDS011;62767;50.300;8.070;2024-02-14T03:42:47;0.68;;;0.47;;
74342;SDS011;62767;50.300;8.070;2024-02-14T03:45:13;0.55;;;0.50;;
74342;SDS011;62767;50.300;8.070;2024-02-14T03:47:39;0.50;;;0.50;;
74342;SDS011;62767;50.300;8.070;2024-02-14T03:50:05;0.60;;;0.60;;
74342;SDS011;62767;50.300;8.070;2024-02-14T03:52:32;0.77;;;0.70;;
74342;SDS011;62767;50.300;8.070;2024-02-14T03:54:58;0.43;;;0.43;;
74342;SDS011;62767;50.300;8.070;2024-02-14T03:59:50;0.85;;;0.68;;
74342;SDS011;62767;50.300;8.070;2024-02-14T04:02:17;0.77;;;0.65;;
74342;SDS011;62767;50.300;8.070;2024-02-14T04:04:43;0.77;;;0.70;;
74342;SDS011;62767;50.300;8.070;2024-02-14T04:07:11;0.40;;;0.40;;
74342;SDS011;62767;50.300;8.070;2024-02-14T04:09:37;0.88;;;0.60;;
74342;SDS011;62767;50.300;8.070;2024-02-14T04:12:03;0.60;;;0.60;;
74342;SDS011;62767;50.300;8.070;2024-02-14T04:14:29;0.45;;;0.45;;
74342;SDS011;62767;50.300;8.070;2024-02-14T04:16:55;2.33;;;0.75;;
74342;SDS011;62767;50.300;8.070;2024-02-14T04:19:20;0.60;;;0.60;;
74342;SDS011;62767;50.300;8.070;2024-02-14T04:21:46;1.98;;;0.60;;
74342;SDS011;62767;50.300;8.070;2024-02-14T04:24:11;2.45;;;0.80;;
74342;SDS011;62767;50.300;8.070;2024-02-14T04:26:37;1.38;;;0.68;;
74342;SDS011;62767;50.300;8.070;2024-02-14T04:29:03;2.13;;;0.57;;
74342;SDS011;62767;50.300;8.070;2024-02-14T04:31:29;1.88;;;0.60;;
74342;SDS011;62767;50.300;8.070;2024-02-14T04:33:58;0.73;;;0.60;;
74342;SDS011;62767;50.300;8.070;2024-02-14T04:36:24;0.35;;;0.35;;
74342;SDS011;62767;50.300;8.070;2024-02-14T04:38:49;0.50;;;0.40;;
74342;SDS011;62767;50.300;8.070;2024-02-14T04:41:15;0.98;;;0.50;;
74342;SDS011;62767;50.300;8.070;2024-02-14T04:43:41;2.70;;;0.50;;
74342;SDS011;62767;50.300;8.070;2024-02-14T04:46:07;0.93;;;0.70;;
74342;SDS011;62767;50.300;8.070;2024-02-14T04:48:36;0.70;;;0.47;;
74342;SDS011;62767;50.300;8.070;2024-02-14T04:51:03;0.60;;;0.50;;
74342;SDS011;62767;50.300;8.070;2024-02-14T04:53:30;0.75;;;0.50;;
74342;SDS011;62767;50.300;8.070;2024-02-14T04:55:56;1.15;;;0.52;;
74342;SDS011;62767;50.300;8.070;2024-02-14T04:58:22;0.73;;;0.40;;
74342;SDS011;62767;50.300;8.070;2024-02-14T05:00:48;0.40;;;0.40;;
74342;SDS011;62767;50.300;8.070;2024-02-14T05:03:14;1.08;;;0.50;;
74342;SDS011;62767;50.300;8.070;2024-02-14T05:05:39;0.63;;;0.50;;
74342;SDS011;62767;50.300;8.070;2024-02-14T05:08:05;1.23;;;0.50;;
74342;SDS011;62767;50.300;8.070;2024-02-14T05:10:31;0.50;;;0.50;;
74342;SDS011;62767;50.300;8.070;2024-02-14T05:12:57;0.55;;;0.50;;
74342;SDS011;62767;50.300;8.070;2024-02-14T05:15:23;1.25;;;0.47;;
74342;SDS011;62767;50.300;8.070;2024-02-14T05:17:49;1.30;;;0.70;;
74342;SDS011;62767;50.300;8.070;2024-02-14T05:20:15;1.27;;;0.50;;
74342;SDS011;62767;50.300;8.070;2024-02-14T05:22:41;0.38;;;0.30;;
74342;SDS011;62767;50.300;8.070;2024-02-14T05:25:07;0.40;;;0.40;;
74342;SDS011;62767;50.300;8.070;2024-02-14T05:27:34;0.65;;;0.40;;
74342;SDS011;62767;50.300;8.070;2024-02-14T05:30:03;0.80;;;0.50;;
74342;SDS011;62767;50.300;8.070;2024-02-14T05:32:31;0.30;;;0.30;;
74342;SDS011;62767;50.300;8.070;2024-02-14T05:34:57;0.38;;;0.38;;
74342;SDS011;62767;50.300;8.070;2024-02-14T05:37:22;0.63;;;0.43;;
74342;SDS011;62767;50.300;8.070;2024-02-14T05:39:48;1.38;;;0.60;;
74342;SDS011;62767;50.300;8.070;2024-02-14T05:42:13;1.25;;;0.50;;
74342;SDS011;62767;50.300;8.070;2024-02-14T05:44:41;0.47;;;0.40;;
74342;SDS011;62767;50.300;8.070;2024-02-14T05:47:08;0.65;;;0.50;;
74342;SDS011;62767;50.300;8.070;2024-02-14T05:49:34;0.90;;;0.50;;
74342;SDS011;62767;50.300;8.070;2024-02-14T05:51:59;0.73;;;0.60;;
74342;SDS011;62767;50.300;8.070;2024-02-14T05:54:25;0.50;;;0.50;;
74342;SDS011;62767;50.300;8.070;2024-02-14T05:56:50;0.52;;;0.40;;
74342;SDS011;62767;50.300;8.070;2024-02-14T05:59:16;0.68;;;0.43;;
74342;SDS011;62767;50.300;8.070;2024-02-14T06:01:41;1.05;;;0.40;;
74342;SDS011;62767;50.300;8.070;2024-02-14T06:04:07;0.40;;;0.40;;
74342;SDS011;62767;50.300;8.070;2024-02-14T06:06:32;0.63;;;0.40;;
74342;SDS011;62767;50.300;8.070;2024-02-14T06:08:58;0.52;;;0.40;;
74342;SDS011;62767;50.300;8.070;2024-02-14T06:11:23;0.70;;;0.60;;
74342;SDS011;62767;50.300;8.070;2024-02-14T06:13:48;0.65;;;0.50;;
74342;SDS011;62767;50.300;8.070;2024-02-14T06:16:14;1.00;;;0.60;;
74342;SDS011;62767;50.300;8.070;2024-02-14T06:18:40;0.30;;;0.30;;
74342;SDS011;62767;50.300;8.070;2024-02-14T06:21:05;0.40;;;0.40;;
74342;SDS011;62767;50.300;8.070;2024-02-14T06:23:31;0.73;;;0.50;;
74342;SDS011;62767;50.300;8.070;2024-02-14T06:25:57;0.90;;;0.50;;
74342;SDS011;62767;50.300;8.070;2024-02-14T06:28:24;0.75;;;0.40;;
74342;SDS011;62767;50.300;8.070;2024-02-14T06:30:49;0.60;;;0.30;;
74342;SDS011;62767;50.300;8.070;2024-02-14T06:33:15;0.80;;;0.57;;
74342;SDS011;62767;50.300;8.070;2024-02-14T06:35:40;0.98;;;0.60;;
74342;SDS011;62767;50.300;8.070;2024-02-14T06:38:06;0.40;;;0.30;;
74342;SDS011;62767;50.300;8.070;2024-02-14T06:40:32;1.15;;;0.40;;
74342;SDS011;62767;50.300;8.070;2024-02-14T06:42:57;0.95;;;0.60;;
74342;SDS011;62767;50.300;8.070;2024-02-14T06:45:25;0.32;;;0.30;;
74342;SDS011;62767;50.300;8.070;2024-02-14T06:47:51;0.68;;;0.45;;
74342;SDS011;62767;50.300;8.070;2024-02-14T06:50:16;0.82;;;0.40;;
74342;SDS011;62767;50.300;8.070;2024-02-14T06:52:42;0.75;;;0.45;;
74342;SDS011;62767;50.300;8.070;2024-02-14T06:55:08;0.98;;;0.50;;
74342;SDS011;62767;50.300;8.070;2024-02-14T06:57:33;0.30;;;0.25;;
74342;SDS011;62767;50.300;8.070;2024-02-14T06:59:59;0.70;;;0.50;;
74342;SDS011;62767;50.300;8.070;2024-02-14T07:02:24;0.52;;;0.40;;
74342;SDS011;62767;50.300;8.070;2024-02-14T07:04:53;0.70;;;0.40;;
74342;SDS011;62767;50.300;8.070;2024-02-14T07:07:19;0.82;;;0.57;;
74342;SDS011;62767;50.300;8.070;2024-02-14T07:09:45;0.43;;;0.40;;
74342;SDS011;62767;50.300;8.070;2024-02-14T07:12:11;1.30;;;0.35;;
74342;SDS011;62767;50.300;8.070;2024-02-14T07:14:36;0.50;;;0.50;;
74342;SDS011;62767;50.300;8.070;2024-02-14T07:17:02;0.30;;;0.30;;
74342;SDS011;62767;50.300;8.070;2024-02-14T07:19:27;0.77;;;0.50;;
74342;SDS011;62767;50.300;8.070;2024-02-14T07:21:53;0.45;;;0.30;;
74342;SDS011;62767;50.300;8.070;2024-02-14T07:24:18;0.50;;;0.40;;
74342;SDS011;62767;50.300;8.070;2024-02-14T07:26:44;0.50;;;0.35;;
74342;SDS011;62767;50.300;8.070;2024-02-14T07:29:09;0.57;;;0.50;;
74342;SDS011;62767;50.300;8.070;2024-02-14T07:31:35;0.82;;;0.60;;
74342;SDS011;62767;50.300;8.070;2024-02-14T07:34:00;0.50;;;0.30;;
74342;SDS011;62767;50.300;8.070;2024-02-14T07:36:28;0.50;;;0.40;;
74342;SDS011;62767;50.300;8.070;2024-02-14T07:38:54;0.88;;;0.52;;
74342;SDS011;62767;50.300;8.070;2024-02-14T07:41:20;0.57;;;0.40;;
74342;SDS011;62767;50.300;8.070;2024-02-14T07:43:45;0.75;;;0.60;;
74342;SDS011;62767;50.300;8.070;2024-02-14T07:46:11;0.47;;;0.30;;
74342;SDS011;62767;50.300;8.070;2024-02-14T07:48:37;0.95;;;0.50;;
74342;SDS011;62767;50.300;8.070;2024-02-14T07:51:06;0.60;;;0.50;;
74342;SDS011;62767;50.300;8.070;2024-02-14T07:53:33;0.82;;;0.50;;
74342;SDS011;62767;50.300;8.070;2024-02-14T07:55:58;0.63;;;0.43;;
74342;SDS011;62767;50.300;8.070;2024-02-14T07:58:24;0.57;;;0.50;;
74342;SDS011;62767;50.300;8.070;2024-02-14T08:00:49;0.40;;;0.40;;
74342;SDS011;62767;50.300;8.070;2024-02-14T08:03:14;0.95;;;0.50;;
74342;SDS011;62767;50.300;8.070;2024-02-14T08:05:40;0.73;;;0.70;;
74342;SDS011;62767;50.300;8.070;2024-02-14T08:08:07;1.05;;;0.60;;
74342;SDS011;62767;50.300;8.070;2024-02-14T08:10:33;0.70;;;0.63;;
74342;SDS011;62767;50.300;8.070;2024-02-14T08:12:59;1.17;;;0.60;;
74342;SDS011;62767;50.300;8.070;2024-02-14T08:15:24;1.45;;;0.98;;
74342;SDS011;62767;50.300;8.070;2024-02-14T08:17:49;1.05;;;0.70;;
74342;SDS011;62767;50.300;8.070;2024-02-14T08:20:15;2.13;;;0.90;;
74342;SDS011;62767;50.300;8.070;2024-02-14T08:22:40;1.85;;;1.10;;
74342;SDS011;62767;50.300;8.070;2024-02-14T08:25:06;1.73;;;0.90;;
74342;SDS011;62767;50.300;8.070;2024-02-14T08:27:32;1.67;;;0.90;;
74342;SDS011;62767;50.300;8.070;2024-02-14T08:29:57;3.08;;;1.30;;
74342;SDS011;62767;50.300;8.070;2024-02-14T08:32:23;2.45;;;1.30;;
74342;SDS011;62767;50.300;8.070;2024-02-14T08:34:48;2.65;;;1.50;;
74342;SDS011;62767;50.300;8.070;2024-02-14T08:37:15;2.72;;;1.20;;
74342;SDS011;62767;50.300;8.070;2024-02-14T08:39:41;2.17;;;1.38;;
74342;SDS011;62767;50.300;8.070;2024-02-14T08:42:07;2.65;;;1.25;;
74342;SDS011;62767;50.300;8.070;2024-02-14T08:44:33;3.28;;;1.80;;
74342;SDS011;62767;50.300;8.070;2024-02-14T08:46:59;3.35;;;1.67;;
74342;SDS011;62767;50.300;8.070;2024-02-14T08:49:25;3.95;;;1.88;;
74342;SDS011;62767;50.300;8.070;2024-02-14T08:51:51;3.53;;;1.95;;
74342;SDS011;62767;50.300;8.070;2024-02-14T08:54:16;3.45;;;1.95;;
74342;SDS011;62767;50.300;8.070;2024-02-14T08:56:42;3.10;;;1.73;;
74342;SDS011;62767;50.300;8.070;2024-02-14T08:59:07;4.65;;;2.42;;
74342;SDS011;62767;50.300;8.070;2024-02-14T09:01:33;3.78;;;2.10;;
74342;SDS011;62767;50.300;8.070;2024-02-14T09:03:59;3.85;;;2.30;;
74342;SDS011;62767;50.300;8.070;2024-02-14T09:06:24;3.78;;;2.08;;
74342;SDS011;62767;50.300;8.070;2024-02-14T09:08:51;3.95;;;2.10;;
74342;SDS011;62767;50.300;8.070;2024-02-14T09:11:17;3.90;;;2.22;;
74342;SDS011;62767;50.300;8.070;2024-02-14T09:13:43;4.00;;;2.38;;
74342;SDS011;62767;50.300;8.070;2024-02-14T09:16:09;4.07;;;2.20;;
74342;SDS011;62767;50.300;8.070;2024-02-14T09:18:35;4.32;;;2.50;;
74342;SDS011;62767;50.300;8.070;2024-02-14T09:21:02;4.13;;;2.40;;
74342;SDS011;62767;50.300;8.070;2024-02-14T09:23:30;3.88;;;2.30;;
74342;SDS011;62767;50.300;8.070;2024-02-14T09:25:56;4.38;;;2.15;;
74342;SDS011;62767;50.300;8.070;2024-02-14T09:28:22;4.93;;;2.70;;
74342;SDS011;62767;50.300;8.070;2024-02-14T09:30:48;4.28;;;2.60;;
74342;SDS011;62767;50.300;8.070;2024-02-14T09:33:13;3.45;;;2.05;;
74342;SDS011;62767;50.300;8.070;2024-02-14T09:35:39;3.63;;;2.20;;
74342;SDS011;62767;50.300;8.070;2024-02-14T09:38:10;4.57;;;2.63;;
74342;SDS011;62767;50.300;8.070;2024-02-14T09:40:38;4.10;;;2.53;;
74342;SDS011;62767;50.300;8.070;2024-02-14T09:43:05;4.43;;;2.55;;
74342;SDS011;62767;50.300;8.070;2024-02-14T09:45:38;4.63;;;2.50;;
74342;SDS011;62767;50.300;8.070;2024-02-14T09:48:07;4.05;;;2.50;;
74342;SDS011;62767;50.300;8.070;2024-02-14T09:50:34;4.20;;;2.28;;
74342;SDS011;62767;50.300;8.070;2024-02-14T09:53:00;4.88;;;2.80;;
74342;SDS011;62767;50.300;8.070;2024-02-14T09:55:27;4.15;;;2.67;;
74342;SDS011;62767;50.300;8.070;2024-02-14T09:57:53;4.40;;;2.70;;
74342;SDS011;62767;50.300;8.070;2024-02-14T10:00:20;5.28;;;2.70;;
74342;SDS011;62767;50.300;8.070;2024-02-14T10:02:46;5.07;;;3.00;;
74342;SDS011;62767;50.300;8.070;2024-02-14T10:05:12;4.38;;;2.42;;
74342;SDS011;62767;50.300;8.070;2024-02-14T10:07:41;4.22;;;2.35;;
74342;SDS011;62767;50.300;8.070;2024-02-14T10:10:09;4.95;;;2.88;;
74342;SDS011;62767;50.300;8.070;2024-02-14T10:12:35;4.60;;;2.70;;
74342;SDS011;62767;50.300;8.070;2024-02-14T10:15:01;4.88;;;2.90;;
74342;SDS011;62767;50.300;8.070;2024-02-14T10:17:29;4.28;;;2.55;;
74342;SDS011;62767;50.300;8.070;2024-02-14T10:19:58;4.82;;;2.80;;
74342;SDS011;62767;50.300;8.070;2024-02-14T10:22:25;4.88;;;2.80;;
74342;SDS011;62767;50.300;8.070;2024-02-14T10:24:59;4.95;;;2.65;;
74342;SDS011;62767;50.300;8.070;2024-02-14T10:27:25;4.70;;;2.78;;
74342;SDS011;62767;50.300;8.070;2024-02-14T10:29:50;5.88;;;3.00;;
74342;SDS011;62767;50.300;8.070;2024-02-14T10:32:16;5.30;;;2.65;;
74342;SDS011;62767;50.300;8.070;2024-02-14T10:34:42;4.10;;;2.47;;
74342;SDS011;62767;50.300;8.070;2024-02-14T10:37:10;4.90;;;2.58;;
74342;SDS011;62767;50.300;8.070;2024-02-14T10:39:39;4.13;;;2.45;;
74342;SDS011;62767;50.300;8.070;2024-02-14T10:42:06;4.63;;;2.58;;
74342;SDS011;62767;50.300;8.070;2024-02-14T10:44:32;4.95;;;2.83;;
74342;SDS011;62767;50.300;8.070;2024-02-14T10:46:58;5.18;;;2.80;;
74342;SDS011;62767;50.300;8.070;2024-02-14T10:49:28;4.78;;;2.65;;
74342;SDS011;62767;50.300;8.070;2024-02-14T10:51:55;4.70;;;2.83;;
74342;SDS011;62767;50.300;8.070;2024-02-14T10:54:25;3.95;;;2.22;;
74342;SDS011;62767;50.300;8.070;2024-02-14T10:56:52;4.30;;;2.70;;
74342;SDS011;62767;50.300;8.070;2024-02-14T10:59:23;4.80;;;2.70;;
74342;SDS011;62767;50.300;8.070;2024-02-14T11:01:50;3.88;;;2.55;;
74342;SDS011;62767;50.300;8.070;2024-02-14T11:04:16;4.28;;;2.58;;
74342;SDS011;62767;50.300;8.070;2024-02-14T11:06:46;4.63;;;2.90;;
74342;SDS011;62767;50.300;8.070;2024-02-14T11:09:13;5.00;;;2.83;;
74342;SDS011;62767;50.300;8.070;2024-02-14T11:11:44;4.38;;;2.63;;
74342;SDS011;62767;50.300;8.070;2024-02-14T11:14:10;4.90;;;2.60;;
74342;SDS011;62767;50.300;8.070;2024-02-14T11:16:37;4.28;;;2.60;;
74342;SDS011;62767;50.300;8.070;2024-02-14T11:19:06;4.53;;;2.83;;
74342;SDS011;62767;50.300;8.070;2024-02-14T11:21:36;5.70;;;3.20;;
74342;SDS011;62767;50.300;8.070;2024-02-14T11:24:06;4.82;;;2.60;;
74342;SDS011;62767;50.300;8.070;2024-02-14T11:26:39;5.40;;;2.72;;
74342;SDS011;62767;50.300;8.070;2024-02-14T11:29:05;4.57;;;2.60;;
74342;SDS011;62767;50.300;8.070;2024-02-14T11:31:35;5.03;;;2.80;;
74342;SDS011;62767;50.300;8.070;2024-02-14T11:34:03;4.95;;;2.42;;
74342;SDS011;62767;50.300;8.070;2024-02-14T11:36:31;4.28;;;2.67;;
74342;SDS011;62767;50.300;8.070;2024-02-14T11:38:57;4.25;;;2.67;;
74342;SDS011;62767;50.300;8.070;2024-02-14T11:41:23;5.75;;;3.08;;
74342;SDS011;62767;50.300;8.070;2024-02-14T11:43:52;5.00;;;2.75;;
74342;SDS011;62767;50.300;8.070;2024-02-14T11:46:17;5.25;;;3.05;;
74342;SDS011;62767;50.300;8.070;2024-02-14T11:48:43;4.57;;;2.67;;
74342;SDS011;62767;50.300;8.070;2024-02-14T11:51:11;5.65;;;2.80;;
74342;SDS011;62767;50.300;8.070;2024-02-14T11:53:36;4.97;;;2.90;;
74342;SDS011;62767;50.300;8.070;2024-02-14T11:56:04;5.90;;;2.80;;
74342;SDS011;62767;50.300;8.070;2024-02-14T11:58:30;4.78;;;2.40;;
74342;SDS011;62767;50.300;8.070;2024-02-14T12:00:56;4.22;;;2.20;;
74342;SDS011;62767;50.300;8.070;2024-02-14T12:03:22;4.85;;;2.75;;
74342;SDS011;62767;50.300;8.070;2024-02-14T12:05:49;4.30;;;2.53;;
74342;SDS011;62767;50.300;8.070;2024-02-14T12:08:16;4.70;;;2.67;;
74342;SDS011;62767;50.300;8.070;2024-02-14T12:10:46;4.63;;;2.50;;
74342;SDS011;62767;50.300;8.070;2024-02-14T12:13:14;4.43;;;2.58;;
74342;SDS011;62767;50.300;8.070;2024-02-14T12:15:46;4.60;;;2.47;;
74342;SDS011;62767;50.300;8.070;2024-02-14T12:18:13;4.40;;;2.70;;
74342;SDS011;62767;50.300;8.070;2024-02-14T12:20:40;4.25;;;2.50;;
74342;SDS011;62767;50.300;8.070;2024-02-14T12:23:06;4.15;;;2.38;;
74342;SDS011;62767;50.300;8.070;2024-02-14T12:25:32;4.13;;;2.30;;
74342;SDS011;62767;50.300;8.070;2024-02-14T12:30:44;4.43;;;2.50;;
74342;SDS011;62767;50.300;8.070;2024-02-14T12:35:40;4.13;;;2.22;;
74342;SDS011;62767;50.300;8.070;2024-02-14T12:38:10;4.57;;;2.47;;
74342;SDS011;62767;50.300;8.070;2024-02-14T12:40:36;4.43;;;2.83;;
74342;SDS011;62767;50.300;8.070;2024-02-14T12:43:02;3.70;;;2.40;;
74342;SDS011;62767;50.300;8.070;2024-02-14T12:45:28;3.92;;;2.28;;
74342;SDS011;62767;50.300;8.070;2024-02-14T12:47:53;4.32;;;2.55;;
74342;SDS011;62767;50.300;8.070;2024-02-14T12:50:19;4.30;;;2.47;;
74342;SDS011;62767;50.300;8.070;2024-02-14T12:52:45;3.85;;;2.33;;
74342;SDS011;62767;50.300;8.070;2024-02-14T12:55:11;4.15;;;2.30;;
74342;SDS011;62767;50.300;8.070;2024-02-14T12:57:37;4.43;;;2.72;;
74342;SDS011;62767;50.300;8.070;2024-02-14T13:00:04;4.43;;;2.50;;
74342;SDS011;62767;50.300;8.070;2024-02-14T13:02:34;4.20;;;2.50;;
74342;SDS011;62767;50.300;8.070;2024-02-14T13:05:00;4.35;;;2.55;;
74342;SDS011;62767;50.300;8.070;2024-02-14T13:12:18;4.53;;;2.60;;
74342;SDS011;62767;50.300;8.070;2024-02-14T13:14:43;4.60;;;2.47;;
74342;SDS011;62767;50.300;8.070;2024-02-14T13:17:09;4.45;;;2.40;;
74342;SDS011;62767;50.300;8.070;2024-02-14T13:19:36;3.97;;;2.38;;
74342;SDS011;62767;50.300;8.070;2024-02-14T13:22:01;3.22;;;2.13;;
74342;SDS011;62767;50.300;8.070;2024-02-14T13:24:27;4.10;;;2.30;;
74342;SDS011;62767;50.300;8.070;2024-02-14T13:26:53;4.55;;;2.50;;
74342;SDS011;62767;50.300;8.070;2024-02-14T13:29:19;4.07;;;2.33;;
74342;SDS011;62767;50.300;8.070;2024-02-14T13:31:44;4.07;;;2.10;;
74342;SDS011;62767;50.300;8.070;2024-02-14T13:34:10;3.70;;;2.40;;
74342;SDS011;62767;50.300;8.070;2024-02-14T13:36:37;3.42;;;1.92;;
74342;SDS011;62767;50.300;8.070;2024-02-14T13:39:02;3.70;;;2.10;;
74342;SDS011;62767;50.300;8.070;2024-02-14T13:41:28;3.65;;;2.30;;
74342;SDS011;62767;50.300;8.070;2024-02-14T13:43:53;3.88;;;2.13;;
74342;SDS011;62767;50.300;8.070;2024-02-14T13:46:19;5.10;;;2.40;;
74342;SDS011;62767;50.300;8.070;2024-02-14T13:48:44;3.78;;;2.22;;
74342;SDS011;62767;50.300;8.070;2024-02-14T13:51:10;4.45;;;2.35;;
74342;SDS011;62767;50.300;8.070;2024-02-14T13:53:36;3.83;;;2.20;;
74342;SDS011;62767;50.300;8.070;2024-02-14T13:56:01;4.00;;;2.30;;
74342;SDS011;62767;50.300;8.070;2024-02-14T13:58:27;3.55;;;2.00;;
74342;SDS011;62767;50.300;8.070;2024-02-14T14:00:53;3.40;;;2.10;;
74342;SDS011;62767;50.300;8.070;2024-02-14T14:03:18;3.60;;;2.00;;
74342;SDS011;62767;50.300;8.070;2024-02-14T14:05:44;3.83;;;2.00;;
74342;SDS011;62767;50.300;8.070;2024-02-14T14:08:09;3.55;;;2.15;;
74342;SDS011;62767;50.300;8.070;2024-02-14T14:10:34;4.10;;;2.35;;
74342;SDS011;62767;50.300;8.070;2024-02-14T14:13:00;4.28;;;2.30;;
74342;SDS011;62767;50.300;8.070;2024-02-14T14:15:25;4.20;;;2.38;;
74342;SDS011;62767;50.300;8.070;2024-02-14T14:17:57;3.58;;;2.13;;
74342;SDS011;62767;50.300;8.070;2024-02-14T14:20:22;3.97;;;2.05;;
74342;SDS011;62767;50.300;8.070;2024-02-14T14:22:48;3.00;;;1.80;;
74342;SDS011;62767;50.300;8.070;2024-02-14T14:25:13;3.92;;;2.20;;
74342;SDS011;62767;50.300;8.070;2024-02-14T14:27:39;3.03;;;1.88;;
74342;SDS011;62767;50.300;8.070;2024-02-14T14:30:05;3.47;;;2.10;;
74342;SDS011;62767;50.300;8.070;2024-02-14T14:32:32;3.10;;;1.88;;
74342;SDS011;62767;50.300;8.070;2024-02-14T14:34:57;3.72;;;1.83;;
74342;SDS011;62767;50.300;8.070;2024-02-14T14:37:23;3.65;;;1.90;;
74342;SDS011;62767;50.300;8.070;2024-02-14T14:39:48;3.58;;;1.88;;
74342;SDS011;62767;50.300;8.070;2024-02-14T14:42:14;3.40;;;2.13;;
74342;SDS011;62767;50.300;8.070;2024-02-14T14:44:39;4.32;;;2.35;;
74342;SDS011;62767;50.300;8.070;2024-02-14T14:47:05;3.45;;;2.20;;
74342;SDS011;62767;50.300;8.070;2024-02-14T14:49:30;3.17;;;1.83;;
74342;SDS011;62767;50.300;8.070;2024-02-14T14:51:56;3.80;;;2.10;;
74342;SDS011;62767;50.300;8.070;2024-02-14T14:54:22;4.43;;;2.20;;
74342;SDS011;62767;50.300;8.070;2024-02-14T14:56:52;3.38;;;2.03;;
74342;SDS011;62767;50.300;8.070;2024-02-14T14:59:18;3.50;;;2.03;;